Time;durP1;ratioP1;P1;durP2;ratioP2;P2;SDS_P1;SDS_P2;PMS_P1;PMS_P2;Temp;Humidity;BMP_temperature;BMP_pressure;BME280_temperature;BME280_humidity;BME280_pressure;Samples;Min_cycle;Max_cycle;Signal;HPM_P1;HPM_P2
2021/03/07 00:07:27;;;;;;;8.47;5.63;;;;;;;1.73;82.37;100997.84;20720443;28;20227;-66
2021/03/07 00:17:27;;;;;;;7.70;5.30;;;;;;;1.73;82.95;101003.13;20705173;28;20266;-65
2021/03/07 00:27:28;;;;;;;10.20;5.80;;;;;;;1.62;83.04;101005.06;20716681;28;20221;-61
2021/03/07 00:37:30;;;;;;;9.53;6.20;;;;;;;1.63;84.86;100996.28;20711305;28;20539;-65
2021/03/07 00:47:30;;;;;;;8.13;5.77;;;;;;;1.64;85.24;100971.72;20689047;28;20213;-63
2021/03/07 00:57:31;;;;;;;9.47;6.30;;;;;;;1.68;86.49;100955.00;20694345;28;20217;-67
2021/03/07 01:07:32;;;;;;;6.57;5.77;;;;;;;1.77;86.39;100952.19;20678554;28;20228;-69
2021/03/07 01:17:32;;;;;;;7.40;5.17;;;;;;;1.76;87.03;100924.16;20713482;28;20229;-58
2021/03/07 01:27:33;;;;;;;7.82;5.43;;;;;;;1.66;88.08;100925.22;20709101;28;21102;-58
2021/03/07 01:37:33;;;;;;;7.37;5.77;;;;;;;1.62;88.86;100889.31;20660467;28;20423;-58
2021/03/07 01:47:34;;;;;;;8.27;6.30;;;;;;;1.79;88.87;100855.69;20708059;28;20213;-59
2021/03/07 01:57:37;;;;;;;9.90;6.87;;;;;;;1.70;89.83;100824.28;20698371;28;20228;-58
2021/03/07 02:07:39;;;;;;;9.93;7.40;;;;;;;1.77;89.88;100831.16;20689336;28;20231;-58
2021/03/07 02:17:40;;;;;;;10.47;6.93;;;;;;;1.74;90.92;100819.81;20717990;28;20669;-63
2021/03/07 02:27:40;;;;;;;11.80;7.63;;;;;;;1.72;91.38;100827.75;20727707;28;20272;-58
2021/03/07 02:37:45;;;;;;;11.60;7.23;;;;;;;1.71;90.77;100797.06;20722119;28;20240;-59
2021/03/07 02:47:48;;;;;;;9.40;6.67;;;;;;;1.73;91.44;100797.91;20739145;28;20693;-59
2021/03/07 02:57:50;;;;;;;8.40;6.67;;;;;;;1.77;90.02;100773.28;20738187;28;20242;-64
2021/03/07 03:07:51;;;;;;;9.73;7.23;;;;;;;1.84;90.13;100779.25;20694265;28;20233;-59
2021/03/07 03:17:52;;;;;;;11.60;6.60;;;;;;;1.80;89.24;100751.31;20707176;28;20921;-59
2021/03/07 03:27:57;;;;;;;8.87;6.07;;;;;;;1.86;89.29;100747.66;20697685;28;20251;-62
2021/03/07 03:37:57;;;;;;;9.23;6.10;;;;;;;1.91;88.87;100722.13;20697622;28;20225;-66
2021/03/07 03:48:01;;;;;;;8.80;5.80;;;;;;;1.96;88.10;100730.75;20697856;28;20217;-59
2021/03/07 03:58:06;;;;;;;7.47;6.07;;;;;;;1.98;88.68;100719.31;20720588;28;20232;-59
2021/03/07 04:08:08;;;;;;;7.47;6.17;;;;;;;2.01;88.69;100702.59;20660955;28;20295;-61
2021/03/07 04:18:13;;;;;;;7.40;5.80;;;;;;;2.00;88.33;100696.44;20678881;28;20218;-59
2021/03/07 04:28:14;;;;;;;8.27;6.10;;;;;;;1.96;88.00;100670.22;20664758;28;20252;-61
2021/03/07 04:38:15;;;;;;;8.10;5.43;;;;;;;2.01;88.25;100677.13;20686454;28;20828;-62
2021/03/07 04:48:15;;;;;;;6.22;5.55;;;;;;;2.08;87.64;100667.31;20700090;28;20213;-62
2021/03/07 04:58:16;;;;;;;7.22;5.30;;;;;;;2.11;86.27;100661.97;20683702;28;20216;-70
2021/03/07 05:08:16;;;;;;;9.27;4.80;;;;;;;2.05;86.60;100657.72;20714864;28;20217;-64
2021/03/07 05:18:17;;;;;;;6.10;4.83;;;;;;;2.08;86.56;100609.41;20719359;28;20942;-59
2021/03/07 05:28:17;;;;;;;6.28;4.53;;;;;;;2.18;84.21;100638.09;20701946;28;20292;-62
2021/03/07 05:38:25;;;;;;;5.40;4.75;;;;;;;2.15;84.16;100632.91;20703963;28;20225;-65
2021/03/07 05:48:28;;;;;;;7.90;4.23;;;;;;;2.14;82.05;100596.09;20703386;28;20235;-58
2021/03/07 05:58:36;;;;;;;6.40;4.77;;;;;;;2.07;83.77;100637.50;20696311;28;20221;-58
2021/03/07 06:08:36;;;;;;;5.77;4.90;;;;;;;2.10;83.87;100633.91;20635958;28;20229;-65
2021/03/07 06:18:41;;;;;;;4.43;3.83;;;;;;;2.13;80.43;100639.97;20633813;28;20860;-64
2021/03/07 06:28:42;;;;;;;7.10;3.23;;;;;;;2.26;77.33;100637.91;20643948;28;20232;-58
2021/03/07 06:39:00;;;;;;;4.27;3.30;;;;;;;2.30;76.81;100636.91;20620375;28;20233;-59
2021/03/07 06:49:01;;;;;;;5.90;4.47;;;;;;;2.25;80.96;100643.22;20635682;28;21109;-61
2021/03/07 06:59:13;;;;;;;5.97;4.77;;;;;;;2.18;82.44;100626.69;20644037;28;20920;-63
2021/03/07 07:09:23;;;;;;;5.33;4.13;;;;;;;2.12;82.72;100618.97;20615841;28;20233;-62
2021/03/07 07:19:24;;;;;;;4.90;4.40;;;;;;;2.07;81.10;100603.28;20625017;28;20307;-58
2021/03/07 07:29:25;;;;;;;6.13;3.53;;;;;;;2.08;77.77;100588.34;20623294;28;20222;-57
2021/03/07 07:39:29;;;;;;;4.33;3.30;;;;;;;2.12;75.64;100603.16;20642496;28;20244;-58
2021/03/07 07:49:54;;;;;;;5.27;3.63;;;;;;;2.09;74.30;100584.81;20612316;28;20717;-58
2021/03/07 07:59:54;;;;;;;4.50;3.87;;;;;;;2.19;73.66;100591.56;20670637;28;20233;-61
2021/03/07 08:09:55;;;;;;;5.67;3.70;;;;;;;2.16;74.22;100581.13;20707696;28;20217;-60
2021/03/07 08:19:56;;;;;;;4.50;3.30;;;;;;;2.16;72.96;100586.41;20696246;28;20220;-61
2021/03/07 08:30:06;;;;;;;5.77;3.20;;;;;;;2.06;73.00;100567.31;20713505;28;20260;-64
2021/03/07 08:40:26;;;;;;;5.93;3.50;;;;;;;2.14;72.16;100588.22;20703878;28;20232;-64
2021/03/07 09:00:35;;;;;;;4.90;3.03;;;;;;;1.97;73.03;100556.16;20556009;27;7723256;-62
2021/03/07 09:10:44;;;;;;;5.03;3.50;;;;;;;1.95;73.85;100571.13;20738296;28;20231;-59
2021/03/07 09:20:49;;;;;;;8.37;3.97;;;;;;;1.94;75.68;100540.44;20850682;28;20220;-58
2021/03/07 09:30:55;;;;;;;5.73;4.00;;;;;;;1.97;73.82;100537.75;20851774;28;20433;-59
2021/03/07 09:40:56;;;;;;;5.57;3.90;;;;;;;1.97;74.37;100525.47;20725070;28;20231;-55
2021/03/07 09:50:57;;;;;;;5.10;4.45;;;;;;;1.94;75.86;100525.53;20813144;28;20235;-55
2021/03/07 10:00:59;;;;;;;5.40;4.30;;;;;;;2.05;75.93;100486.63;20898028;28;20583;-58
2021/03/07 10:11:08;;;;;;;8.53;5.37;;;;;;;2.17;75.81;100509.16;20873760;28;20346;-58
2021/03/07 10:21:08;;;;;;;9.23;5.80;;;;;;;2.14;76.64;100517.13;20891462;28;20220;-58
2021/03/07 10:31:11;;;;;;;11.00;5.90;;;;;;;2.26;77.05;100508.91;20876389;28;20641;-58
2021/03/07 10:41:27;;;;;;;9.43;5.93;;;;;;;2.23;77.44;100505.47;20893537;28;20454;-57
2021/03/07 10:51:28;;;;;;;25.57;12.30;;;;;;;2.11;77.71;100520.69;20819135;28;20230;-57
2021/03/07 11:01:28;;;;;;;9.60;5.20;;;;;;;2.03;78.95;100479.69;20891377;28;20216;-57
2021/03/07 11:11:29;;;;;;;10.20;6.03;;;;;;;2.05;77.42;100504.22;20873211;28;20352;-57
2021/03/07 11:21:29;;;;;;;7.40;5.23;;;;;;;2.21;77.30;100480.97;20886728;28;20216;-54
2021/03/07 11:31:30;;;;;;;6.17;5.07;;;;;;;2.49;76.68;100459.06;20876990;28;20251;-54
2021/03/07 11:41:31;;;;;;;8.95;6.15;;;;;;;2.64;76.01;100436.69;20880275;28;20710;-55
2021/03/07 11:51:31;;;;;;;10.57;4.70;;;;;;;3.16;74.59;100404.28;20881084;28;20241;-55
2021/03/07 12:01:32;;;;;;;5.23;4.57;;;;;;;2.99;75.32;100411.88;20871333;28;20976;-55
2021/03/07 12:11:32;;;;;;;7.30;4.30;;;;;;;2.85;73.35;100371.94;20886220;28;20217;-54
2021/03/07 12:31:43;;;;;;;8.00;4.87;;;;;;;2.79;74.19;100357.16;20610795;27;7697093;-57
2021/03/07 12:41:43;;;;;;;7.53;5.40;;;;;;;2.81;75.71;100386.09;20847219;28;20225;-55
2021/03/07 12:51:44;;;;;;;16.95;7.63;;;;;;;2.77;75.83;100352.88;20781056;28;20232;-60
2021/03/07 13:21:52;;;;;;;9.23;6.10;;;;;;;2.64;77.78;100393.69;20706303;27;7788234;-59
2021/03/07 13:42:02;;;;;;;10.20;6.97;;;;;;;3.40;75.11;100338.44;20655695;28;7714834;-55
2021/03/07 13:52:03;;;;;;;9.10;5.90;;;;;;;3.01;76.49;100309.91;20922457;28;20233;-56
2021/03/07 14:32:04;;;;;;;6.57;5.30;;;;;;;3.06;75.19;100265.78;20748642;27;7861483;-59
2021/03/07 14:52:10;;;;;;;8.37;5.60;;;;;;;2.96;77.46;100274.91;20769884;27;7823140;-57
2021/03/07 15:02:10;;;;;;;9.87;5.90;;;;;;;2.81;76.63;100272.78;21025329;28;20238;-61
2021/03/07 15:12:11;;;;;;;8.30;6.10;;;;;;;2.75;78.75;100270.38;20980312;28;20250;-58
2021/03/07 15:42:18;;;;;;;7.47;5.33;;;;;;;2.63;78.65;100240.03;20435404;27;7797492;-57
2021/03/07 15:52:25;;;;;;;12.57;7.40;;;;;;;2.48;78.56;100225.59;20646041;28;20235;-57
2021/03/07 16:02:33;;;;;;;12.67;6.73;;;;;;;2.43;79.70;100216.97;20634229;28;20618;-58
2021/03/07 16:32:38;;;;;;;12.17;7.47;;;;;;;2.28;81.65;100248.22;20522569;27;7824560;-56
2021/03/07 16:52:45;;;;;;;29.53;17.40;;;;;;;2.18;83.13;100247.63;20627144;27;7796289;-57
2021/03/07 17:02:46;;;;;;;16.47;10.87;;;;;;;2.12;84.02;100248.69;20939408;28;20658;-57
2021/03/07 17:12:46;;;;;;;14.10;9.50;;;;;;;2.06;86.28;100242.72;20918437;28;20225;-58
2021/03/07 17:22:47;;;;;;;15.27;8.33;;;;;;;2.05;85.85;100238.41;20942033;28;20294;-59
2021/03/07 17:32:48;;;;;;;14.50;9.43;;;;;;;1.61;87.95;100166.94;20907097;28;20465;-57
2021/03/07 17:42:49;;;;;;;11.60;8.90;;;;;;;2.01;86.99;100242.88;20940191;28;20510;-58
2021/03/07 17:52:49;;;;;;;12.07;8.80;;;;;;;2.03;87.27;100232.31;21023563;28;20218;-57
2021/03/07 18:02:50;;;;;;;11.30;8.77;;;;;;;2.04;86.66;100208.59;20947727;28;20972;-61
2021/03/07 18:12:50;;;;;;;18.30;12.17;;;;;;;2.08;87.13;100204.06;20957472;28;20491;-61
2021/03/07 18:22:51;;;;;;;16.37;9.73;;;;;;;2.09;87.15;100213.69;20939593;28;22195;-70
2021/03/07 18:32:52;;;;;;;17.17;10.63;;;;;;;2.00;89.45;100177.16;20939226;28;20480;-69
2021/03/07 18:42:53;;;;;;;17.83;11.67;;;;;;;1.88;88.72;100169.63;20940081;28;20938;-69
2021/03/07 19:03:02;;;;;;;14.07;10.32;;;;;;;1.97;89.13;100185.13;20600043;27;7916578;-72
2021/03/07 19:13:04;;;;;;;15.23;10.03;;;;;;;1.99;88.96;100147.34;20853257;28;20320;-67
2021/03/07 19:23:05;;;;;;;14.53;9.33;;;;;;;1.86;89.93;100181.97;20827409;28;20235;-67
2021/03/07 19:33:05;;;;;;;10.37;9.07;;;;;;;1.87;89.55;100170.53;20848200;28;20946;-65
2021/03/07 19:43:10;;;;;;;12.90;9.50;;;;;;;1.90;89.34;100158.16;20848111;28;20230;-67
2021/03/07 19:53:10;;;;;;;17.00;10.80;;;;;;;2.02;88.02;100177.97;20847017;28;20231;-66
2021/03/07 20:03:11;;;;;;;16.02;9.70;;;;;;;1.71;87.73;100131.56;20915608;28;20688;-68
2021/03/07 20:13:11;;;;;;;16.47;10.57;;;;;;;1.97;88.93;100201.78;20877265;28;20238;-64
2021/03/07 20:23:12;;;;;;;16.27;10.15;;;;;;;1.95;90.01;100208.00;20889832;28;20465;-67
2021/03/07 20:33:12;;;;;;;18.90;11.53;;;;;;;1.54;96.58;100211.88;20876545;28;20313;-65
2021/03/07 20:43:13;;;;;;;20.50;11.85;;;;;;;1.42;99.25;100223.63;20884981;28;21109;-65
2021/03/07 20:53:13;;;;;;;20.27;12.13;;;;;;;1.43;98.27;100218.31;20886091;28;20239;-64
2021/03/07 21:03:14;;;;;;;14.73;11.40;;;;;;;1.52;97.34;100217.19;20869173;28;20582;-64
2021/03/07 21:13:14;;;;;;;19.00;12.73;;;;;;;1.48;97.97;100210.28;20868954;28;20231;-64
2021/03/07 21:23:15;;;;;;;15.50;11.80;;;;;;;1.29;100.00;100230.13;20872483;28;20541;-64
2021/03/07 21:33:17;;;;;;;20.25;13.50;;;;;;;1.18;100.00;100261.09;20850228;28;20350;-66
2021/03/07 21:43:18;;;;;;;21.47;10.40;;;;;;;0.65;100.00;100281.72;20866705;28;20211;-64
2021/03/07 21:53:18;;;;;;;9.95;6.30;;;;;;;0.31;100.00;100293.03;20876097;28;20562;-61
2021/03/07 22:03:19;;;;;;;10.98;6.88;;;;;;;0.21;100.00;100294.13;20880650;28;20293;-60
2021/03/07 22:13:20;;;;;;;15.07;8.50;;;;;;;0.17;100.00;100289.84;20894830;28;20220;-60
2021/03/07 22:23:21;;;;;;;8.67;6.00;;;;;;;0.15;100.00;100311.75;20866440;28;20932;-60
2021/03/07 22:33:21;;;;;;;8.35;5.85;;;;;;;0.11;100.00;100318.84;20860894;28;20288;-60
2021/03/07 22:43:22;;;;;;;7.60;4.72;;;;;;;0.05;100.00;100320.72;20886122;28;20322;-59
2021/03/07 23:03:32;;;;;;;4.15;3.55;;;;;;;-0.14;100.00;100320.28;20420665;27;7963199;-65
2021/03/07 23:13:33;;;;;;;4.03;3.03;;;;;;;-0.30;100.00;100324.09;20707902;28;20236;-61
2021/03/07 23:23:33;;;;;;;3.73;2.80;;;;;;;-0.44;100.00;100342.69;20694055;28;20305;-64
2021/03/07 23:33:34;;;;;;;3.60;3.25;;;;;;;-0.72;100.00;100353.69;20695711;28;20243;-61
2021/03/07 23:43:34;;;;;;;5.75;3.85;;;;;;;-0.89;100.00;100360.13;20698480;28;20711;-60
2021/03/07 23:53:35;;;;;;;6.32;3.97;;;;;;;-1.19;100.00;100372.81;20694661;28;20228;-60
